createdAt,value
2023-02-05T00:01:54.903Z,48.07
2023-02-05T00:04:23.512Z,48.10
2023-02-05T00:06:52.120Z,48.11
2023-02-05T00:09:20.534Z,48.11
2023-02-05T00:11:50.313Z,48.16
2023-02-05T00:14:19.130Z,48.25
2023-02-05T00:16:48.333Z,48.24
2023-02-05T00:19:16.981Z,48.18
2023-02-05T00:21:45.362Z,48.29
2023-02-05T00:24:14.380Z,48.48
2023-02-05T00:26:43.051Z,48.52
2023-02-05T00:29:12.798Z,48.17
2023-02-05T00:31:42.169Z,48.25
2023-02-05T00:34:12.105Z,48.49
2023-02-05T00:36:41.740Z,48.36
2023-02-05T00:39:11.705Z,48.67
2023-02-05T00:41:40.585Z,48.77
2023-02-05T00:44:10.524Z,48.86
2023-02-05T00:46:39.111Z,48.73
2023-02-05T00:49:08.479Z,48.80
2023-02-05T00:51:36.846Z,48.63
2023-02-05T00:54:05.822Z,48.88
2023-02-05T00:56:34.718Z,48.66
2023-02-05T00:59:04.871Z,48.54
2023-02-05T01:01:34.329Z,48.48
2023-02-05T01:04:03.897Z,48.55
2023-02-05T01:06:32.437Z,48.78
2023-02-05T01:09:01.342Z,48.78
2023-02-05T01:11:31.292Z,48.93
2023-02-05T01:14:01.560Z,48.80
2023-02-05T01:16:32.019Z,48.86
2023-02-05T01:19:02.082Z,48.96
2023-02-05T01:21:30.592Z,49.28
2023-02-05T01:24:01.936Z,49.69
2023-02-05T01:26:30.849Z,50.12
2023-02-05T01:29:00.932Z,50.84
2023-02-05T01:31:30.018Z,51.45
2023-02-05T01:33:58.729Z,51.56
2023-02-05T01:36:27.719Z,51.46
2023-02-05T01:38:56.221Z,51.39
2023-02-05T01:41:24.811Z,51.96
2023-02-05T01:44:13.250Z,52.19
2023-02-05T01:46:43.497Z,51.84
2023-02-05T01:49:27.194Z,52.03
2023-02-05T01:51:55.880Z,52.23
2023-02-05T01:54:26.226Z,52.86
2023-02-05T01:56:57.921Z,52.83
2023-02-05T01:59:31.326Z,52.25
2023-02-05T02:02:01.172Z,52.47
2023-02-05T02:04:35.268Z,52.30
2023-02-05T02:07:04.064Z,52.42
2023-02-05T02:09:34.214Z,52.02
2023-02-05T02:12:08.447Z,51.69
2023-02-05T02:14:37.798Z,51.78
2023-02-05T02:17:06.571Z,51.91
2023-02-05T02:19:41.309Z,51.85
2023-02-05T02:22:18.968Z,51.62
2023-02-05T02:25:10.753Z,51.69
2023-02-05T02:27:49.819Z,51.62
2023-02-05T02:30:52.612Z,52.21
2023-02-05T02:33:32.537Z,52.24
2023-02-05T02:36:19.397Z,51.96
2023-02-05T02:39:07.796Z,52.06
2023-02-05T02:41:54.785Z,51.93
2023-02-05T02:44:57.406Z,52.04
2023-02-05T02:47:29.258Z,52.21
2023-02-05T02:50:02.448Z,52.36
2023-02-05T02:52:39.512Z,52.31
2023-02-05T02:55:11.400Z,52.46
2023-02-05T02:57:44.032Z,52.49
2023-02-05T03:00:14.625Z,52.75
2023-02-05T03:02:44.245Z,52.72
2023-02-05T03:05:17.365Z,52.57
2023-02-05T03:07:51.013Z,52.74
2023-02-05T03:10:36.912Z,52.46
2023-02-05T03:13:11.227Z,52.65
2023-02-05T03:15:43.480Z,53.21
2023-02-05T03:18:12.689Z,53.08
2023-02-05T03:20:54.691Z,52.78
2023-02-05T03:23:23.410Z,52.91
2023-02-05T03:25:52.551Z,53.05
2023-02-05T03:28:25.725Z,53.11
2023-02-05T03:31:04.415Z,53.16
2023-02-05T03:33:52.562Z,53.17
2023-02-05T03:36:35.120Z,52.93
2023-02-05T03:39:33.361Z,53.12
2023-02-05T03:42:26.824Z,53.02
2023-02-05T03:45:09.971Z,53.17
2023-02-05T03:47:59.130Z,53.07
2023-02-05T03:50:52.569Z,52.95
2023-02-05T03:53:44.972Z,53.27
2023-02-05T03:56:40.246Z,53.41
2023-02-05T03:59:09.169Z,53.28
2023-02-05T04:01:38.453Z,52.95
2023-02-05T04:04:07.324Z,52.54
2023-02-05T04:06:36.455Z,52.41
2023-02-05T04:09:05.180Z,52.20
2023-02-05T04:11:36.369Z,51.95
2023-02-05T04:14:08.918Z,51.95
2023-02-05T04:16:37.957Z,52.00
2023-02-05T04:19:06.713Z,51.86
2023-02-05T04:21:36.684Z,51.64
2023-02-05T04:24:07.652Z,51.78
2023-02-05T04:26:40.378Z,51.75
2023-02-05T04:29:09.845Z,51.71
2023-02-05T04:31:43.321Z,51.61
2023-02-05T04:34:12.414Z,51.67
2023-02-05T04:36:41.472Z,51.56
2023-02-05T04:39:09.883Z,51.47
2023-02-05T04:41:40.063Z,51.62
2023-02-05T04:44:10.547Z,51.73
2023-02-05T04:46:41.704Z,52.20
2023-02-05T04:51:53.411Z,52.51
2023-02-05T04:54:22.858Z,53.37
2023-02-05T04:56:51.560Z,53.14
2023-02-05T04:59:21.650Z,53.44
2023-02-05T05:01:50.211Z,52.81
2023-02-05T05:04:19.723Z,52.68
2023-02-05T05:06:48.572Z,52.60
2023-02-05T05:09:24.343Z,52.60
2023-02-05T05:11:55.197Z,52.77
2023-02-05T05:14:24.355Z,52.37
2023-02-05T05:16:55.954Z,52.24
2023-02-05T05:19:26.046Z,52.14
2023-02-05T05:21:56.570Z,51.94
2023-02-05T05:24:24.948Z,51.92
2023-02-05T05:26:53.406Z,51.75
2023-02-05T05:29:21.865Z,51.88
2023-02-05T05:31:53.928Z,51.75
2023-02-05T05:34:22.958Z,51.62
2023-02-05T05:36:53.555Z,51.59
2023-02-05T05:39:40.942Z,51.78
2023-02-05T05:42:29.275Z,51.81
2023-02-05T05:44:58.723Z,51.59
2023-02-05T05:47:26.995Z,51.69
2023-02-05T05:49:55.755Z,51.86
2023-02-05T05:52:26.312Z,51.82
2023-02-05T05:54:55.740Z,51.43
2023-02-05T05:57:24.517Z,51.20
2023-02-05T05:59:52.996Z,51.21
2023-02-05T06:03:04.393Z,51.49
2023-02-05T06:05:34.724Z,51.35
2023-02-05T06:08:05.484Z,51.45
2023-02-05T06:10:34.339Z,51.74
2023-02-05T06:13:03.244Z,51.79
2023-02-05T06:15:32.027Z,51.50
2023-02-05T06:18:01.358Z,51.35
2023-02-05T06:20:30.158Z,51.29
2023-02-05T06:22:58.415Z,51.50
2023-02-05T06:25:27.486Z,51.36
2023-02-05T06:27:56.357Z,51.33
2023-02-05T06:30:24.867Z,51.28
2023-02-05T06:32:54.547Z,51.19
2023-02-05T06:35:23.524Z,50.93
2023-02-05T06:37:52.520Z,50.74
2023-02-05T06:40:22.742Z,50.61
2023-02-05T06:42:52.955Z,50.59
2023-02-05T06:45:24.076Z,50.67
2023-02-05T06:47:56.886Z,50.67
2023-02-05T06:50:25.888Z,50.33
2023-02-05T06:52:54.634Z,50.27
2023-02-05T06:55:23.529Z,50.13
2023-02-05T06:57:52.276Z,50.23
2023-02-05T07:00:20.856Z,50.25
2023-02-05T07:02:49.651Z,50.38
2023-02-05T07:05:18.293Z,50.33
2023-02-05T07:07:48.485Z,50.02
2023-02-05T07:10:19.121Z,49.85
2023-02-05T07:12:48.040Z,49.60
2023-02-05T07:15:17.485Z,49.57
2023-02-05T07:17:45.953Z,49.55
2023-02-05T07:20:16.924Z,49.58
2023-02-05T07:22:47.473Z,49.65
2023-02-05T07:25:15.936Z,49.65
2023-02-05T07:27:44.763Z,49.76
2023-02-05T07:30:13.928Z,50.22
2023-02-05T07:32:43.169Z,49.90
2023-02-05T07:35:11.571Z,49.89
2023-02-05T07:37:40.658Z,50.03
2023-02-05T07:40:13.002Z,50.01
2023-02-05T07:42:42.494Z,49.88
2023-02-05T07:45:11.057Z,49.70
2023-02-05T07:47:40.088Z,49.66
2023-02-05T07:50:08.953Z,49.37
2023-02-05T07:52:38.192Z,48.85
2023-02-05T07:55:07.762Z,49.06
2023-02-05T07:57:36.785Z,48.92
2023-02-05T08:00:07.789Z,48.40
2023-02-05T08:02:40.525Z,48.37
2023-02-05T08:05:09.319Z,48.00
2023-02-05T08:07:38.696Z,48.01
2023-02-05T08:10:10.442Z,47.78
2023-02-05T08:12:43.007Z,47.63
2023-02-05T08:15:12.620Z,47.32
2023-02-05T08:17:42.756Z,47.05
2023-02-05T18:12:56.350Z,77.49
2023-02-05T18:15:25.740Z,71.12
2023-02-05T18:17:54.536Z,69.80
2023-02-05T18:20:23.244Z,69.05
2023-02-05T18:22:52.262Z,68.63
2023-02-05T18:25:20.810Z,67.57
2023-02-05T18:27:50.573Z,67.09
2023-02-05T18:30:24.118Z,66.53
2023-02-05T18:32:53.581Z,66.36
2023-02-05T18:35:24.419Z,66.96
2023-02-05T18:37:56.231Z,66.46
2023-02-05T18:40:25.697Z,65.76
2023-02-05T18:42:55.651Z,66.31
2023-02-05T18:45:24.617Z,65.74
2023-02-05T18:47:53.268Z,65.71
2023-02-05T18:50:22.334Z,65.16
2023-02-05T18:52:51.561Z,64.74
2023-02-05T18:55:20.426Z,64.10
2023-02-05T18:57:52.240Z,64.16
2023-02-05T19:00:21.101Z,63.86
2023-02-05T19:02:49.637Z,63.91
2023-02-05T19:05:19.854Z,63.75
2023-02-05T19:07:50.051Z,63.73
2023-02-05T19:10:19.017Z,63.75
2023-02-05T19:12:49.206Z,64.07
2023-02-05T19:15:18.318Z,63.87
2023-02-05T19:17:46.860Z,63.47
2023-02-05T19:20:15.553Z,63.48
2023-02-05T19:22:44.696Z,63.70
2023-02-05T19:25:14.001Z,63.60
2023-02-05T19:27:42.727Z,63.75
2023-02-05T19:30:14.375Z,63.56
2023-02-05T19:32:42.884Z,63.41
2023-02-05T19:35:11.940Z,63.61
2023-02-05T19:37:41.470Z,63.84
2023-02-05T19:40:12.780Z,64.04
2023-02-05T19:42:43.023Z,63.44
2023-02-05T19:45:11.820Z,63.88
2023-02-05T19:47:40.845Z,63.26
2023-02-05T19:50:09.829Z,63.07
2023-02-05T19:52:39.016Z,63.03
2023-02-05T19:55:07.712Z,62.96
2023-02-05T19:57:36.885Z,63.09
2023-02-05T20:00:07.473Z,63.50
2023-02-05T20:02:42.091Z,64.03
2023-02-05T20:05:11.142Z,64.46
2023-02-05T20:07:41.095Z,64.23
2023-02-05T20:10:10.062Z,63.92
2023-02-05T20:12:41.122Z,64.20
2023-02-05T20:15:10.245Z,63.87
2023-02-05T20:17:40.344Z,63.33
2023-02-05T20:20:28.194Z,62.60
2023-02-05T20:23:01.249Z,62.48
2023-02-05T20:25:30.102Z,62.79
2023-02-05T20:28:01.418Z,62.56
2023-02-05T20:30:48.664Z,62.65
2023-02-05T20:33:18.657Z,62.90
2023-02-05T20:35:48.600Z,62.79
2023-02-05T20:38:19.062Z,62.65
2023-02-05T20:40:47.528Z,62.16
2023-02-05T20:43:16.104Z,61.48
2023-02-05T20:45:44.974Z,61.42
2023-02-05T20:48:13.969Z,61.19
2023-02-05T20:50:43.172Z,61.11
2023-02-05T20:53:12.693Z,60.87
2023-02-05T20:55:41.439Z,61.69
2023-02-05T20:58:10.519Z,61.86
2023-02-05T21:00:40.124Z,61.63
2023-02-05T21:03:08.704Z,61.92
2023-02-05T21:05:37.578Z,61.92
2023-02-05T21:08:09.329Z,61.86
2023-02-05T21:10:38.073Z,62.88
2023-02-05T21:13:09.060Z,62.65
2023-02-05T21:15:37.694Z,62.45
2023-02-05T21:18:06.417Z,61.78
2023-02-05T21:20:35.924Z,61.83
2023-02-05T21:23:04.900Z,61.65
2023-02-05T21:25:36.073Z,62.12
2023-02-05T21:28:05.291Z,61.96
2023-02-05T21:30:35.751Z,61.53
2023-02-05T21:33:06.953Z,61.45
2023-02-05T21:35:39.145Z,60.92
2023-02-05T21:38:07.640Z,61.51
2023-02-05T21:40:37.360Z,61.58
2023-02-05T21:43:05.777Z,61.79
2023-02-05T21:45:36.819Z,61.74
2023-02-05T21:48:05.772Z,61.40
2023-02-05T21:50:36.848Z,61.78
2023-02-05T21:53:09.307Z,61.31
2023-02-05T21:55:37.760Z,61.13
2023-02-05T21:58:06.483Z,60.81
2023-02-05T22:00:35.136Z,60.70
2023-02-05T22:03:03.775Z,60.64
2023-02-05T22:05:34.476Z,61.63
2023-02-05T22:08:05.922Z,60.50
2023-02-05T22:10:35.824Z,60.80
2023-02-05T22:13:05.792Z,60.29
2023-02-05T22:15:34.568Z,60.34
2023-02-05T22:18:06.688Z,59.98
2023-02-05T22:20:36.420Z,59.85
2023-02-05T22:23:04.875Z,59.77
2023-02-05T22:25:36.377Z,59.89
2023-02-05T22:28:07.027Z,60.20
2023-02-05T22:30:36.241Z,60.78
2023-02-05T22:33:06.873Z,60.87
2023-02-05T22:35:35.719Z,60.61
2023-02-05T22:38:05.592Z,60.66
2023-02-05T22:40:34.849Z,60.65
2023-02-05T22:43:03.912Z,60.39
2023-02-05T22:45:32.942Z,60.21
2023-02-05T22:48:01.477Z,61.30
2023-02-05T22:50:31.332Z,60.78
2023-02-05T22:52:59.834Z,60.14
2023-02-05T22:55:28.308Z,60.06
2023-02-05T22:57:56.729Z,59.89
2023-02-05T23:00:25.468Z,60.11
2023-02-05T23:02:53.967Z,60.16
2023-02-05T23:05:25.091Z,59.82
2023-02-05T23:07:54.440Z,60.14
2023-02-05T23:10:26.871Z,61.35
2023-02-05T23:12:56.227Z,61.51
2023-02-05T23:15:27.413Z,61.85
2023-02-05T23:17:56.077Z,61.42
2023-02-05T23:20:24.884Z,60.88
2023-02-05T23:23:04.745Z,61.26
2023-02-05T23:25:36.899Z,61.24
2023-02-05T23:28:05.987Z,60.92
2023-02-05T23:30:34.580Z,61.15
2023-02-05T23:33:06.679Z,62.13
2023-02-05T23:35:35.883Z,62.02
2023-02-05T23:38:04.693Z,61.83
2023-02-05T23:40:36.065Z,62.12
2023-02-05T23:43:04.975Z,62.72
2023-02-05T23:45:35.014Z,62.57
2023-02-05T23:48:04.033Z,62.79
2023-02-05T23:50:34.768Z,62.09
2023-02-05T23:53:03.928Z,62.38
2023-02-05T23:55:32.464Z,61.84
2023-02-05T23:58:01.137Z,62.29
